createdAt,value
2019-04-06T00:00:53.412Z,1001.7
2019-04-06T00:01:55.545Z,1001.6
2019-04-06T00:02:57.672Z,1001.7
2019-04-06T00:04:00.187Z,1001.6
2019-04-06T00:05:02.632Z,1001.6
2019-04-06T00:06:05.110Z,1001.7
2019-04-06T00:07:07.287Z,1001.7
2019-04-06T00:08:09.420Z,1001.7
2019-04-06T00:09:12.205Z,1001.7
2019-04-06T00:10:14.323Z,1001.6
2019-04-06T00:11:16.846Z,1001.6
2019-04-06T00:12:18.967Z,1001.6
2019-04-06T00:13:21.457Z,1001.6
2019-04-06T00:14:23.612Z,1001.5
2019-04-06T00:15:25.735Z,1001.5
2019-04-06T00:16:27.845Z,1001.5
2019-04-06T00:17:29.997Z,1001.5
2019-04-06T00:18:32.128Z,1001.5
2019-04-06T00:19:34.253Z,1001.5
2019-04-06T00:20:36.388Z,1001.5
2019-04-06T00:21:38.554Z,1001.5
2019-04-06T00:22:40.755Z,1001.5
2019-04-06T00:23:42.911Z,1001.5
2019-04-06T00:24:45.319Z,1001.5
2019-04-06T00:25:48.233Z,1001.6
2019-04-06T00:26:50.362Z,1001.5
2019-04-06T00:27:52.489Z,1001.6
2019-04-06T00:28:54.628Z,1001.6
2019-04-06T00:29:56.739Z,1001.6
2019-04-06T00:30:58.884Z,1001.6
2019-04-06T00:32:01.011Z,1001.6
2019-04-06T00:33:03.449Z,1001.6
2019-04-06T00:34:05.640Z,1001.5
2019-04-06T00:35:07.777Z,1001.5
2019-04-06T00:36:09.897Z,1001.5
2019-04-06T00:37:12.029Z,1001.5
2019-04-06T00:38:14.504Z,1001.5
2019-04-06T00:39:16.681Z,1001.5
2019-04-06T00:40:18.816Z,1001.5
2019-04-06T00:41:21.526Z,1001.5
2019-04-06T00:42:23.675Z,1001.5
2019-04-06T00:43:26.667Z,1001.5
2019-04-06T00:44:28.789Z,1001.4
2019-04-06T00:45:31.212Z,1001.5
2019-04-06T00:46:33.350Z,1001.5
2019-04-06T00:47:35.524Z,1001.5
2019-04-06T00:48:38.036Z,1001.5
2019-04-06T00:49:40.201Z,1001.4
2019-04-06T00:50:42.338Z,1001.5
2019-04-06T00:51:44.562Z,1001.5
2019-04-06T00:52:46.722Z,1001.5
2019-04-06T00:53:48.898Z,1001.5
2019-04-06T00:54:51.015Z,1001.5
2019-04-06T00:55:56.494Z,1001.5
2019-04-06T00:56:58.917Z,1001.5
2019-04-06T00:58:01.049Z,1001.5
2019-04-06T00:59:03.523Z,1001.5
2019-04-06T01:00:06.044Z,1001.5
2019-04-06T01:01:08.179Z,1001.5
2019-04-06T01:02:10.358Z,1001.5
2019-04-06T01:03:12.927Z,1001.5
2019-04-06T01:04:15.348Z,1001.5
2019-04-06T01:05:17.529Z,1001.5
2019-04-06T01:06:19.967Z,1001.5
2019-04-06T01:07:23.556Z,1001.5
2019-04-06T01:08:25.762Z,1001.5
2019-04-06T01:09:27.880Z,1001.5
2019-04-06T01:10:30.004Z,1001.5
2019-04-06T01:11:32.183Z,1001.5
2019-04-06T01:12:34.344Z,1001.5
2019-04-06T01:13:36.471Z,1001.5
2019-04-06T01:14:38.603Z,1001.5
2019-04-06T01:15:40.707Z,1001.5
2019-04-06T01:16:42.955Z,1001.5
2019-04-06T01:17:45.098Z,1001.5
2019-04-06T01:18:47.319Z,1001.5
2019-04-06T01:19:49.461Z,1001.5
2019-04-06T01:20:51.610Z,1001.5
2019-04-06T01:21:54.493Z,1001.5
2019-04-06T01:22:56.906Z,1001.5
2019-04-06T01:23:59.047Z,1001.5
2019-04-06T01:25:01.483Z,1001.5
2019-04-06T01:26:08.105Z,1001.5
2019-04-06T01:27:10.294Z,1001.5
2019-04-06T01:28:12.486Z,1001.5
2019-04-06T01:29:14.646Z,1001.5
2019-04-06T01:30:16.803Z,1001.5
2019-04-06T01:31:19.053Z,1001.5
2019-04-06T01:32:21.464Z,1001.5
2019-04-06T01:33:23.997Z,1001.5
2019-04-06T01:34:26.117Z,1001.5
2019-04-06T01:35:28.243Z,1001.5
2019-04-06T01:36:30.420Z,1001.5
2019-04-06T01:37:32.922Z,1001.5
2019-04-06T01:38:35.149Z,1001.5
2019-04-06T01:39:37.351Z,1001.5
2019-04-06T01:40:39.484Z,1001.5
2019-04-06T01:41:41.791Z,1001.5
2019-04-06T01:42:43.933Z,1001.5
2019-04-06T01:43:46.401Z,1001.5
2019-04-06T01:44:48.609Z,1001.6
2019-04-06T01:45:50.787Z,1001.5
2019-04-06T01:46:53.330Z,1001.5
2019-04-06T01:47:55.587Z,1001.6
2019-04-06T01:48:58.033Z,1001.5
2019-04-06T01:50:00.168Z,1001.5
2019-04-06T01:51:02.609Z,1001.5
2019-04-06T01:52:04.744Z,1001.6
2019-04-06T01:53:06.878Z,1001.5
2019-04-06T01:54:09.038Z,1001.5
2019-04-06T01:55:11.193Z,1001.5
2019-04-06T01:56:19.307Z,1001.6
2019-04-06T01:57:21.457Z,1001.5
2019-04-06T01:58:23.625Z,1001.5
2019-04-06T01:59:25.833Z,1001.5
2019-04-06T02:00:28.057Z,1001.5
2019-04-06T02:01:30.216Z,1001.5
2019-04-06T02:02:32.350Z,1001.5
2019-04-06T02:03:34.472Z,1001.5
2019-04-06T02:04:36.888Z,1001.5
2019-04-06T02:05:39.010Z,1001.5
2019-04-06T02:06:41.145Z,1001.5
2019-04-06T02:07:43.626Z,1001.5
2019-04-06T02:08:45.767Z,1001.6
2019-04-06T02:09:47.973Z,1001.5
2019-04-06T02:10:50.155Z,1001.6
2019-04-06T02:11:52.349Z,1001.6
2019-04-06T02:12:54.528Z,1001.6
2019-04-06T02:13:56.626Z,1001.6
2019-04-06T02:14:59.172Z,1001.6
2019-04-06T02:16:01.427Z,1001.7
2019-04-06T02:17:03.818Z,1001.6
2019-04-06T02:18:06.555Z,1001.7
2019-04-06T02:19:08.692Z,1001.6
2019-04-06T02:20:10.888Z,1001.7
2019-04-06T02:21:12.970Z,1001.6
2019-04-06T02:22:15.465Z,1001.6
2019-04-06T02:23:17.591Z,1001.6
2019-04-06T02:24:19.988Z,1001.6
2019-04-06T02:25:22.312Z,1001.6
2019-04-06T02:26:31.423Z,1001.5
2019-04-06T02:27:33.614Z,1001.6
2019-04-06T02:28:35.695Z,1001.6
2019-04-06T02:29:37.924Z,1001.6
2019-04-06T02:30:40.117Z,1001.6
2019-04-06T02:31:42.409Z,1001.6
2019-04-06T02:32:45.036Z,1001.7
2019-04-06T02:33:48.208Z,1001.7
2019-04-06T02:34:50.654Z,1001.7
2019-04-06T02:35:53.783Z,1001.7
2019-04-06T02:36:56.202Z,1001.7
2019-04-06T02:37:58.813Z,1001.6
2019-04-06T02:39:02.080Z,1001.6
2019-04-06T02:40:08.401Z,1001.6
2019-04-06T02:41:11.755Z,1001.6
2019-04-06T02:42:13.959Z,1001.6
2019-04-06T02:43:16.405Z,1001.6
2019-04-06T02:44:18.880Z,1001.6
2019-04-06T02:45:21.530Z,1001.6
2019-04-06T02:46:23.711Z,1001.6
2019-04-06T02:47:25.822Z,1001.6
2019-04-06T02:48:28.156Z,1001.7
2019-04-06T02:49:30.537Z,1001.6
2019-04-06T02:50:33.056Z,1001.6
2019-04-06T02:51:35.295Z,1001.6
2019-04-06T02:52:38.097Z,1001.6
2019-04-06T02:53:40.958Z,1001.6
2019-04-06T02:54:43.426Z,1001.6
2019-04-06T02:55:46.044Z,1001.6
2019-04-06T02:56:48.457Z,1001.6
2019-04-06T02:57:51.006Z,1001.6
2019-04-06T02:58:53.187Z,1001.6
2019-04-06T02:59:55.924Z,1001.5
2019-04-06T03:00:58.382Z,1001.5
2019-04-06T03:02:00.913Z,1001.5
2019-04-06T03:03:03.182Z,1001.5
2019-04-06T03:04:05.823Z,1001.5
2019-04-06T03:05:08.354Z,1001.5
2019-04-06T03:06:10.617Z,1001.5
2019-04-06T03:07:13.101Z,1001.5
2019-04-06T03:08:15.630Z,1001.5
2019-04-06T03:09:18.408Z,1001.5
2019-04-06T03:10:20.705Z,1001.5
2019-04-06T03:11:23.308Z,1001.5
2019-04-06T03:12:26.188Z,1001.5
2019-04-06T03:13:28.455Z,1001.5
2019-04-06T03:14:30.883Z,1001.5
2019-04-06T03:15:33.013Z,1001.5
2019-04-06T03:16:35.619Z,1001.5
2019-04-06T03:17:38.217Z,1001.6
2019-04-06T03:18:40.626Z,1001.6
2019-04-06T03:19:43.161Z,1001.6
2019-04-06T03:20:45.613Z,1001.5
2019-04-06T03:21:47.728Z,1001.5
2019-04-06T03:22:50.358Z,1001.5
2019-04-06T03:23:52.968Z,1001.5
2019-04-06T03:24:55.793Z,1001.5
2019-04-06T03:25:58.122Z,1001.4
2019-04-06T03:27:03.316Z,1001.5
2019-04-06T03:28:06.065Z,1001.5
2019-04-06T03:29:08.445Z,1001.5
2019-04-06T03:30:11.863Z,1001.5
2019-04-06T03:31:14.729Z,1001.5
2019-04-06T03:32:17.874Z,1001.5
2019-04-06T03:33:20.334Z,1001.5
2019-04-06T03:34:23.946Z,1001.5
2019-04-06T03:35:26.420Z,1001.5
2019-04-06T03:36:29.166Z,1001.5
2019-04-06T03:37:31.976Z,1001.5
2019-04-06T03:38:34.512Z,1001.5
2019-04-06T03:39:37.620Z,1001.5
2019-04-06T03:40:40.142Z,1001.4
2019-04-06T03:41:42.282Z,1001.4
2019-04-06T03:42:44.663Z,1001.5
2019-04-06T03:43:47.168Z,1001.4
2019-04-06T03:44:49.973Z,1001.4
2019-04-06T03:45:52.642Z,1001.5
2019-04-06T03:46:55.949Z,1001.4
2019-04-06T03:47:58.427Z,1001.4
2019-04-06T03:49:00.797Z,1001.4
2019-04-06T03:50:02.922Z,1001.4
2019-04-06T03:51:05.701Z,1001.4
2019-04-06T03:52:07.796Z,1001.4
2019-04-06T03:53:10.155Z,1001.4
2019-04-06T03:54:12.702Z,1001.4
2019-04-06T03:55:15.517Z,1001.4
2019-04-06T03:56:17.832Z,1001.4
2019-04-06T03:57:20.098Z,1001.4
2019-04-06T03:58:22.451Z,1001.4
2019-04-06T03:59:24.760Z,1001.4
2019-04-06T04:00:27.448Z,1001.4
2019-04-06T04:01:30.795Z,1001.4
2019-04-06T04:02:32.967Z,1001.4
2019-04-06T04:03:35.824Z,1001.4
2019-04-06T04:04:38.227Z,1001.5
2019-04-06T04:05:40.344Z,1001.4
2019-04-06T04:06:43.032Z,1001.4
2019-04-06T04:07:46.570Z,1001.4
2019-04-06T04:08:48.807Z,1001.5
2019-04-06T04:09:51.318Z,1001.5
2019-04-06T04:10:53.756Z,1001.4
2019-04-06T04:11:56.091Z,1001.4
2019-04-06T04:12:58.590Z,1001.4
2019-04-06T04:14:00.929Z,1001.4
2019-04-06T04:15:03.340Z,1001.4
2019-04-06T04:16:05.493Z,1001.4
2019-04-06T04:17:07.719Z,1001.4
2019-04-06T04:18:09.853Z,1001.4
2019-04-06T04:19:12.918Z,1001.4
2019-04-06T04:20:15.533Z,1001.4
2019-04-06T04:21:17.687Z,1001.4
2019-04-06T04:22:20.165Z,1001.4
2019-04-06T04:23:22.463Z,1001.4
2019-04-06T04:24:24.585Z,1001.4
2019-04-06T04:25:27.418Z,1001.4
2019-04-06T04:26:29.844Z,1001.4
2019-04-06T04:27:31.986Z,1001.3
2019-04-06T04:28:34.492Z,1001.3
2019-04-06T04:29:37.181Z,1001.3
2019-04-06T04:30:39.899Z,1001.3
2019-04-06T04:31:42.513Z,1001.2
2019-04-06T04:32:45.694Z,1001.3
2019-04-06T04:33:48.434Z,1001.3
2019-04-06T04:34:51.036Z,1001.3
2019-04-06T04:35:53.211Z,1001.3
2019-04-06T04:36:55.826Z,1001.3
2019-04-06T04:37:57.880Z,1001.3
2019-04-06T04:39:00.103Z,1001.3
2019-04-06T04:40:02.647Z,1001.4
2019-04-06T04:41:05.834Z,1001.3
2019-04-06T04:42:08.019Z,1001.3
2019-04-06T04:43:10.332Z,1001.3
2019-04-06T04:44:13.135Z,1001.3
2019-04-06T04:45:15.856Z,1001.3
2019-04-06T04:46:17.915Z,1001.4
2019-04-06T04:47:20.164Z,1001.4
2019-04-06T04:48:22.926Z,1001.4
2019-04-06T04:49:25.315Z,1001.4
2019-04-06T04:50:27.398Z,1001.4
2019-04-06T04:51:30.081Z,1001.4
2019-04-06T04:52:32.387Z,1001.4
2019-04-06T04:53:34.633Z,1001.4
2019-04-06T04:54:36.992Z,1001.4
2019-04-06T04:55:39.246Z,1001.4
2019-04-06T04:56:42.081Z,1001.4
2019-04-06T04:57:46.135Z,1001.4
2019-04-06T04:58:48.174Z,1001.4
2019-04-06T04:59:50.363Z,1001.4
2019-04-06T05:00:52.945Z,1001.4
2019-04-06T05:01:55.282Z,1001.4
2019-04-06T05:02:57.337Z,1001.3
2019-04-06T05:03:59.722Z,1001.4
2019-04-06T05:05:01.967Z,1001.4
2019-04-06T05:06:04.467Z,1001.4
2019-04-06T05:07:06.701Z,1001.4
2019-04-06T05:08:08.741Z,1001.4
2019-04-06T05:09:10.935Z,1001.4
2019-04-06T05:10:13.021Z,1001.4
2019-04-06T05:11:15.507Z,1001.5
2019-04-06T05:12:17.554Z,1001.4
2019-04-06T05:13:19.573Z,1001.5
2019-04-06T05:14:21.721Z,1001.4
2019-04-06T05:15:23.955Z,1001.4
2019-04-06T05:16:26.057Z,1001.4
2019-04-06T05:17:28.237Z,1001.4
2019-04-06T05:18:30.838Z,1001.5
2019-04-06T05:19:33.026Z,1001.4
2019-04-06T05:20:35.047Z,1001.4
2019-04-06T05:21:37.447Z,1001.4
2019-04-06T05:22:39.605Z,1001.4
2019-04-06T05:23:41.970Z,1001.4
2019-04-06T05:24:44.213Z,1001.5
2019-04-06T05:25:46.300Z,1001.4
2019-04-06T05:26:48.478Z,1001.4
2019-04-06T05:27:53.394Z,1001.5
2019-04-06T05:28:55.837Z,1001.5
2019-04-06T05:29:57.923Z,1001.5
2019-04-06T05:31:00.350Z,1001.5
2019-04-06T05:32:02.388Z,1001.5
2019-04-06T05:33:05.247Z,1001.5
2019-04-06T05:34:07.458Z,1001.5
2019-04-06T05:35:09.698Z,1001.6
2019-04-06T05:36:12.397Z,1001.6
2019-04-06T05:37:14.594Z,1001.6
2019-04-06T05:38:16.637Z,1001.6
2019-04-06T05:39:18.730Z,1001.6
2019-04-06T05:40:20.894Z,1001.7
2019-04-06T05:41:23.135Z,1001.7
2019-04-06T05:42:25.181Z,1001.7
2019-04-06T05:43:27.600Z,1001.7
2019-04-06T05:44:30.815Z,1001.7
2019-04-06T05:45:33.022Z,1001.7
2019-04-06T05:46:35.667Z,1001.8
2019-04-06T05:47:38.157Z,1001.8
2019-04-06T05:48:40.358Z,1001.7
2019-04-06T05:49:42.407Z,1001.8
2019-04-06T05:50:44.513Z,1001.8
2019-04-06T05:51:46.659Z,1001.8
2019-04-06T05:52:48.729Z,1001.8
2019-04-06T05:53:50.905Z,1001.8
2019-04-06T05:54:53.111Z,1001.7
2019-04-06T05:55:55.264Z,1001.7
2019-04-06T05:56:57.492Z,1001.8
2019-04-06T05:58:07.264Z,1001.7
2019-04-06T05:59:13.658Z,1001.8
2019-04-06T06:00:16.350Z,1001.8
2019-04-06T06:01:18.735Z,1001.7
2019-04-06T06:02:20.904Z,1001.7
2019-04-06T06:03:24.088Z,1001.7
2019-04-06T06:04:26.239Z,1001.8
2019-04-06T06:05:28.714Z,1001.8
2019-04-06T06:06:30.753Z,1001.8
2019-04-06T06:07:33.524Z,1001.8
2019-04-06T06:08:36.078Z,1001.8
2019-04-06T06:09:38.872Z,1001.8
2019-04-06T06:10:41.138Z,1001.8
2019-04-06T06:11:43.245Z,1001.8
2019-04-06T06:12:45.276Z,1001.8
2019-04-06T06:13:47.429Z,1001.8
2019-04-06T06:14:49.963Z,1001.8
2019-04-06T06:15:52.253Z,1001.8
2019-04-06T06:16:54.816Z,1001.8
2019-04-06T06:17:56.911Z,1001.8
2019-04-06T06:18:58.974Z,1001.8
2019-04-06T06:20:01.171Z,1001.8
2019-04-06T06:21:03.424Z,1001.8
2019-04-06T06:22:06.190Z,1001.8
2019-04-06T06:23:08.294Z,1001.8
2019-04-06T06:24:10.590Z,1001.8
2019-04-06T06:25:13.137Z,1001.8
2019-04-06T06:26:16.430Z,1001.8
2019-04-06T06:27:19.375Z,1001.8
2019-04-06T06:28:24.423Z,1001.8
2019-04-06T06:29:26.482Z,1001.8
2019-04-06T06:30:28.954Z,1001.9
2019-04-06T06:31:31.574Z,1001.8
2019-04-06T06:32:33.870Z,1001.8
2019-04-06T06:33:36.074Z,1001.8
2019-04-06T06:34:38.451Z,1001.9
2019-04-06T06:35:40.750Z,1001.9
2019-04-06T06:36:43.007Z,1001.8
2019-04-06T06:37:45.114Z,1001.9
2019-04-06T06:38:47.197Z,1001.9
2019-04-06T06:39:49.513Z,1001.8
2019-04-06T06:40:51.545Z,1001.8
2019-04-06T06:41:53.674Z,1001.8
2019-04-06T06:42:55.930Z,1001.8
2019-04-06T06:43:57.996Z,1001.8
2019-04-06T06:45:00.272Z,1001.8
2019-04-06T06:46:02.920Z,1001.8
2019-04-06T06:47:05.124Z,1001.8
2019-04-06T06:48:07.644Z,1001.8
2019-04-06T06:49:09.831Z,1001.8
2019-04-06T06:50:12.034Z,1001.8
2019-04-06T06:51:14.289Z,1001.7
2019-04-06T06:52:16.694Z,1001.8
2019-04-06T06:53:18.737Z,1001.8
2019-04-06T06:54:21.231Z,1001.8
2019-04-06T06:55:23.633Z,1001.8
2019-04-06T06:56:28.938Z,1001.9
2019-04-06T06:57:30.977Z,1001.9
2019-04-06T06:58:33.225Z,1001.8
2019-04-06T06:59:35.260Z,1001.8
2019-04-06T07:00:37.420Z,1001.9
2019-04-06T07:01:39.724Z,1001.8
2019-04-06T07:02:41.894Z,1001.8
2019-04-06T07:03:44.451Z,1001.9
2019-04-06T07:04:46.772Z,1001.9
2019-04-06T07:05:49.199Z,1001.8
2019-04-06T07:06:52.140Z,1001.9
2019-04-06T07:07:54.433Z,1001.8
2019-04-06T07:08:56.591Z,1001.8
2019-04-06T07:10:06.537Z,1001.8
2019-04-06T07:11:09.089Z,1001.8
2019-04-06T07:12:11.984Z,1001.8
2019-04-06T07:13:14.243Z,1001.8
2019-04-06T07:14:16.656Z,1001.8
2019-04-06T07:15:19.950Z,1001.8
2019-04-06T07:16:22.563Z,1001.9
2019-04-06T07:17:24.663Z,1001.8
2019-04-06T07:18:26.706Z,1001.8
2019-04-06T07:19:28.797Z,1001.8
2019-04-06T07:20:31.773Z,1001.9
2019-04-06T07:21:34.549Z,1001.8
2019-04-06T07:22:37.009Z,1001.8
2019-04-06T07:23:39.202Z,1001.8
2019-04-06T07:24:41.468Z,1001.8
2019-04-06T07:25:43.837Z,1001.8
2019-04-06T07:27:00.611Z,1001.7
2019-04-06T07:28:02.808Z,1001.7
2019-04-06T07:29:04.947Z,1001.7
2019-04-06T07:30:07.296Z,1001.7
2019-04-06T07:31:09.760Z,1001.8
2019-04-06T07:32:12.649Z,1001.8
2019-04-06T07:33:14.941Z,1001.8
2019-04-06T07:34:17.571Z,1001.8
2019-04-06T07:35:19.798Z,1001.8
2019-04-06T07:36:22.001Z,1001.8
2019-04-06T07:37:24.217Z,1001.8
2019-04-06T07:38:26.611Z,1001.8
2019-04-06T07:39:29.057Z,1001.8
2019-04-06T07:40:31.203Z,1001.8
2019-04-06T07:41:33.242Z,1001.8
2019-04-06T07:42:36.259Z,1001.8
2019-04-06T07:43:38.832Z,1001.8
2019-04-06T07:44:40.977Z,1001.8
2019-04-06T07:45:43.436Z,1001.8
2019-04-06T07:46:45.590Z,1001.9
2019-04-06T07:47:47.661Z,1001.8
2019-04-06T07:48:50.399Z,1001.9
2019-04-06T07:49:53.217Z,1001.9
2019-04-06T07:50:55.776Z,1001.9
2019-04-06T07:51:58.011Z,1001.9
2019-04-06T07:53:00.370Z,1001.9
2019-04-06T07:54:03.100Z,1001.9
2019-04-06T07:55:05.810Z,1001.9
2019-04-06T07:56:08.694Z,1001.9
2019-04-06T07:57:10.923Z,1001.9
2019-04-06T07:58:13.754Z,1001.9
2019-04-06T07:59:16.177Z,1001.9
2019-04-06T08:00:18.493Z,1002
2019-04-06T08:01:20.737Z,1002
2019-04-06T08:02:22.966Z,1001.9
2019-04-06T08:03:25.172Z,1001.9
2019-04-06T08:04:27.527Z,1002
2019-04-06T08:05:29.915Z,1002
2019-04-06T08:06:32.369Z,1002
2019-04-06T08:07:34.947Z,1002
2019-04-06T08:08:37.230Z,1001.9
2019-04-06T08:09:39.359Z,1002
2019-04-06T08:10:41.533Z,1001.9
2019-04-06T08:11:43.705Z,1002
2019-04-06T08:12:46.148Z,1002
2019-04-06T08:13:48.407Z,1002
2019-04-06T08:14:50.814Z,1002
2019-04-06T08:15:52.869Z,1001.9
2019-04-06T08:16:55.633Z,1002
2019-04-06T08:17:58.069Z,1002
2019-04-06T08:19:00.300Z,1002
2019-04-06T08:20:02.983Z,1001.9
2019-04-06T08:21:05.232Z,1001.9
2019-04-06T08:22:07.559Z,1002
2019-04-06T08:23:09.846Z,1002
2019-04-06T08:24:12.127Z,1002
2019-04-06T08:25:15.074Z,1002
2019-04-06T08:26:17.607Z,1002
2019-04-06T08:27:19.668Z,1002
2019-04-06T08:28:22.501Z,1002
2019-04-06T08:29:25.056Z,1002.1
2019-04-06T08:30:27.198Z,1002
2019-04-06T08:31:30.228Z,1002.1
2019-04-06T08:32:32.622Z,1002
2019-04-06T08:33:35.613Z,1002.1
2019-04-06T08:34:38.096Z,1002.1
2019-04-06T08:35:40.374Z,1002.1
2019-04-06T08:36:42.651Z,1002.1
2019-04-06T08:37:44.735Z,1002
2019-04-06T08:38:47.587Z,1002
2019-04-06T08:39:50.123Z,1002
2019-04-06T08:40:52.879Z,1002
2019-04-06T08:41:55.634Z,1002
2019-04-06T08:42:58.048Z,1002
2019-04-06T08:44:00.419Z,1002
2019-04-06T08:45:02.892Z,1002
2019-04-06T08:46:05.291Z,1002
2019-04-06T08:47:07.502Z,1002
2019-04-06T08:48:10.515Z,1002
2019-04-06T08:49:12.766Z,1002
2019-04-06T08:50:14.900Z,1002
2019-04-06T08:51:17.436Z,1002
2019-04-06T08:52:19.479Z,1002
2019-04-06T08:53:21.537Z,1002
2019-04-06T08:54:24.274Z,1002
2019-04-06T08:55:26.788Z,1002
2019-04-06T08:56:29.064Z,1002
2019-04-06T08:57:31.430Z,1002
2019-04-06T08:58:33.701Z,1002
2019-04-06T08:59:36.128Z,1002
2019-04-06T09:00:38.878Z,1002
2019-04-06T09:01:41.413Z,1002
2019-04-06T09:02:44.309Z,1002
2019-04-06T09:03:47.069Z,1001.9
2019-04-06T09:04:49.649Z,1002
2019-04-06T09:05:51.878Z,1001.9
2019-04-06T09:06:54.754Z,1001.9
2019-04-06T09:07:57.377Z,1002
2019-04-06T09:08:59.969Z,1002
2019-04-06T09:10:02.576Z,1002
2019-04-06T09:11:05.084Z,1002
2019-04-06T09:12:07.394Z,1001.9
2019-04-06T09:13:09.644Z,1001.9
2019-04-06T09:14:11.981Z,1001.9
2019-04-06T09:15:14.342Z,1001.9
2019-04-06T09:16:16.804Z,1001.9
2019-04-06T09:17:19.212Z,1001.9
2019-04-06T09:18:21.713Z,1002
2019-04-06T09:19:24.027Z,1002
2019-04-06T09:20:26.365Z,1002
2019-04-06T09:21:28.663Z,1001.9
2019-04-06T09:22:31.415Z,1001.9
2019-04-06T09:23:33.574Z,1001.9
2019-04-06T09:24:35.862Z,1001.9
2019-04-06T09:25:38.474Z,1001.8
2019-04-06T09:26:41.380Z,1001.9
2019-04-06T09:27:43.597Z,1001.9
2019-04-06T09:28:46.012Z,1001.9
2019-04-06T09:29:48.627Z,1001.9
2019-04-06T09:30:50.925Z,1001.9
2019-04-06T09:31:53.312Z,1001.9
2019-04-06T09:32:55.587Z,1001.9
2019-04-06T09:33:58.045Z,1001.9
2019-04-06T09:35:00.119Z,1001.8
2019-04-06T09:36:03.108Z,1001.8
2019-04-06T09:37:05.716Z,1001.8
2019-04-06T09:38:08.206Z,1001.8
2019-04-06T09:39:10.516Z,1001.8
2019-04-06T09:40:12.789Z,1001.8
2019-04-06T09:41:15.331Z,1001.8
2019-04-06T09:42:17.799Z,1001.7
2019-04-06T09:43:20.158Z,1001.8
2019-04-06T09:44:22.244Z,1001.8
2019-04-06T09:45:24.549Z,1001.7
2019-04-06T09:46:27.351Z,1001.7
2019-04-06T09:47:29.678Z,1001.7
2019-04-06T09:48:31.990Z,1001.7
2019-04-06T09:49:34.724Z,1001.7
2019-04-06T09:50:37.056Z,1001.6
2019-04-06T09:51:39.785Z,1001.6
2019-04-06T09:52:42.067Z,1001.6
2019-04-06T09:53:44.687Z,1001.5
2019-04-06T09:54:47.280Z,1001.5
2019-04-06T09:55:49.696Z,1001.5
2019-04-06T09:56:52.220Z,1001.5
2019-04-06T09:57:54.400Z,1001.5
2019-04-06T09:58:56.672Z,1001.5
2019-04-06T09:59:59.032Z,1001.5
2019-04-06T10:01:01.240Z,1001.5
2019-04-06T10:02:03.311Z,1001.5
2019-04-06T10:03:07.142Z,1001.5
2019-04-06T10:04:09.187Z,1001.5
2019-04-06T10:05:11.356Z,1001.5
2019-04-06T10:06:13.709Z,1001.5
2019-04-06T10:07:16.135Z,1001.5
2019-04-06T10:08:19.158Z,1001.5
2019-04-06T10:09:21.682Z,1001.4
2019-04-06T10:10:24.006Z,1001.5
2019-04-06T10:11:26.212Z,1001.5
2019-04-06T10:12:28.441Z,1001.5
2019-04-06T10:13:31.128Z,1001.4
2019-04-06T10:14:33.376Z,1001.4
2019-04-06T10:15:35.453Z,1001.4
2019-04-06T10:16:37.660Z,1001.4
2019-04-06T10:17:39.715Z,1001.5
2019-04-06T10:18:42.665Z,1001.4
2019-04-06T10:19:44.725Z,1001.5
2019-04-06T10:20:47.309Z,1001.4
2019-04-06T10:21:49.971Z,1001.4
2019-04-06T10:22:52.309Z,1001.4
2019-04-06T10:23:54.666Z,1001.4
2019-04-06T10:24:56.791Z,1001.4
2019-04-06T10:25:59.831Z,1001.4
2019-04-06T10:27:02.226Z,1001.4
2019-04-06T10:28:05.413Z,1001.4
2019-04-06T10:29:07.632Z,1001.4
2019-04-06T10:30:10.175Z,1001.4
2019-04-06T10:31:12.816Z,1001.4
2019-04-06T10:32:14.942Z,1001.4
2019-04-06T10:33:17.317Z,1001.4
2019-04-06T10:34:19.926Z,1001.4
2019-04-06T10:35:22.467Z,1001.4
2019-04-06T10:36:25.109Z,1001.4
2019-04-06T10:37:27.157Z,1001.4
2019-04-06T10:38:29.373Z,1001.4
2019-04-06T10:39:31.749Z,1001.4
2019-04-06T10:40:34.008Z,1001.4
2019-04-06T10:41:36.346Z,1001.4
2019-04-06T10:42:39.026Z,1001.4
2019-04-06T10:43:41.369Z,1001.4
2019-04-06T10:44:43.528Z,1001.4
2019-04-06T10:45:45.807Z,1001.4
2019-04-06T10:46:48.048Z,1001.3
2019-04-06T10:47:50.576Z,1001.4
2019-04-06T10:48:53.484Z,1001.4
2019-04-06T10:49:56.235Z,1001.4
2019-04-06T10:50:58.708Z,1001.4
2019-04-06T10:52:01.038Z,1001.4
2019-04-06T10:53:03.424Z,1001.5
2019-04-06T10:54:05.752Z,1001.4
2019-04-06T10:55:08.205Z,1001.4
2019-04-06T10:56:10.562Z,1001.3
2019-04-06T10:57:13.830Z,1001.4
2019-04-06T10:58:16.057Z,1001.3
2019-04-06T10:59:18.757Z,1001.3
2019-04-06T11:00:21.185Z,1001.4
2019-04-06T11:01:24.091Z,1001.3
2019-04-06T11:02:26.902Z,1001.3
2019-04-06T11:03:29.249Z,1001.3
2019-04-06T11:04:32.045Z,1001.3
2019-04-06T11:05:35.285Z,1001.3
2019-04-06T11:06:37.863Z,1001.3
2019-04-06T11:07:40.641Z,1001.3
2019-04-06T11:08:43.001Z,1001.2
2019-04-06T11:09:45.349Z,1001.3
2019-04-06T11:10:47.539Z,1001.3
2019-04-06T11:11:49.852Z,1001.2
2019-04-06T11:12:52.449Z,1001.2
2019-04-06T11:13:54.863Z,1001.2
2019-04-06T11:14:57.408Z,1001.2
2019-04-06T11:16:00.398Z,1001.2
2019-04-06T11:17:02.695Z,1001.2
2019-04-06T11:18:05.119Z,1001.3
2019-04-06T11:19:07.330Z,1001.3
2019-04-06T11:20:09.738Z,1001.2
2019-04-06T11:21:12.363Z,1001.3
2019-04-06T11:22:17.559Z,1001.2
2019-04-06T11:23:20.537Z,1001.2
2019-04-06T11:24:22.968Z,1001.2
2019-04-06T11:25:25.031Z,1001.3
2019-04-06T11:26:27.797Z,1001.2
2019-04-06T11:27:30.140Z,1001.2
2019-04-06T11:28:32.258Z,1001.2
2019-04-06T11:29:34.316Z,1001.2
2019-04-06T11:30:36.625Z,1001.2
2019-04-06T11:31:39.341Z,1001.3
2019-04-06T11:32:41.678Z,1001.2
2019-04-06T11:33:43.981Z,1001.2
2019-04-06T11:34:46.335Z,1001.2
2019-04-06T11:35:48.742Z,1001.2
2019-04-06T11:36:51.420Z,1001.1
2019-04-06T11:37:53.666Z,1001.1
2019-04-06T11:38:56.246Z,1001.1
2019-04-06T11:39:58.527Z,1001.2
2019-04-06T11:41:00.881Z,1001.1
2019-04-06T11:42:04.058Z,1001.1
2019-04-06T11:43:06.697Z,1001.1
2019-04-06T11:44:09.886Z,1001.1
2019-04-06T11:45:12.331Z,1001.1
2019-04-06T11:46:14.571Z,1001.1
2019-04-06T11:47:17.134Z,1001
2019-04-06T11:48:20.020Z,1001.1
2019-04-06T11:49:22.379Z,1001
2019-04-06T11:50:24.694Z,1001
2019-04-06T11:51:26.836Z,1001
2019-04-06T11:52:29.346Z,1001
2019-04-06T11:53:31.394Z,1001
2019-04-06T11:54:33.828Z,1001
2019-04-06T11:55:35.960Z,1001
2019-04-06T11:56:38.489Z,1001
2019-04-06T11:57:40.859Z,1001
2019-04-06T11:58:43.283Z,1000.9
2019-04-06T11:59:45.345Z,1000.9
2019-04-06T12:00:47.395Z,1000.9
2019-04-06T12:01:50.324Z,1000.9
2019-04-06T12:02:52.801Z,1000.9
2019-04-06T12:03:55.099Z,1001
2019-04-06T12:04:57.710Z,1000.9
2019-04-06T12:06:00.253Z,1000.9
2019-04-06T12:07:02.599Z,1000.9
2019-04-06T12:08:06.571Z,1000.9
2019-04-06T12:09:10.022Z,1000.9
2019-04-06T12:10:12.347Z,1000.9
2019-04-06T12:11:14.549Z,1000.9
2019-04-06T12:12:16.725Z,1000.9
2019-04-06T12:13:19.592Z,1000.9
2019-04-06T12:14:22.383Z,1000.9
2019-04-06T12:15:25.055Z,1000.9
2019-04-06T12:16:27.159Z,1000.9
2019-04-06T12:17:29.746Z,1000.8
2019-04-06T12:18:32.642Z,1000.9
2019-04-06T12:19:35.295Z,1000.8
2019-04-06T12:20:37.731Z,1000.8
2019-04-06T12:21:39.971Z,1000.8
2019-04-06T12:22:42.506Z,1000.8
2019-04-06T12:23:45.028Z,1000.8
2019-04-06T12:24:47.358Z,1000.8
2019-04-06T12:25:49.804Z,1000.7
2019-04-06T12:26:52.007Z,1000.8
2019-04-06T12:27:54.373Z,1000.8
2019-04-06T12:28:56.448Z,1000.8
2019-04-06T12:29:58.793Z,1000.8
2019-04-06T12:31:01.217Z,1000.8
2019-04-06T12:32:03.810Z,1000.8
2019-04-06T12:33:06.298Z,1000.8
2019-04-06T12:34:09.487Z,1000.7
2019-04-06T12:35:11.910Z,1000.8
2019-04-06T12:36:14.137Z,1000.8
2019-04-06T12:37:16.849Z,1000.8
2019-04-06T12:38:19.294Z,1000.9
2019-04-06T12:39:21.978Z,1000.8
2019-04-06T12:40:24.371Z,1000.8
2019-04-06T12:41:27.037Z,1000.7
2019-04-06T12:42:29.901Z,1000.7
2019-04-06T12:43:32.324Z,1000.7
2019-04-06T12:44:34.781Z,1000.7
2019-04-06T12:45:38.227Z,1000.7
2019-04-06T12:46:40.295Z,1000.7
2019-04-06T12:47:43.145Z,1000.6
2019-04-06T12:48:45.798Z,1000.7
2019-04-06T12:49:48.442Z,1000.7
2019-04-06T12:50:50.960Z,1000.6
2019-04-06T12:51:54.032Z,1000.6
2019-04-06T12:52:57.386Z,1000.6
2019-04-06T12:54:00.534Z,1000.7
2019-04-06T12:55:04.018Z,1000.7
2019-04-06T12:56:07.559Z,1000.7
2019-04-06T12:57:09.867Z,1000.6
2019-04-06T12:58:12.355Z,1000.7
2019-04-06T12:59:14.499Z,1000.6
2019-04-06T13:00:16.744Z,1000.7
2019-04-06T13:01:19.010Z,1000.6
2019-04-06T13:02:22.382Z,1000.6
2019-04-06T13:03:25.118Z,1000.7
2019-04-06T13:04:27.209Z,1000.7